Aéroport int. de Vancouver, Colombie-Britannique

Conditions des dernières 24 heures

Ce tableau est un sommaire des conditions météo couvrant les dernières 24 heures. Ce sommaire inclut les paramètres suivants: température, humidité, point de rosée, direction et vitesse du vent, pression barométrique, facteur de refroidissement éolien ou indice humidex.
Date / Heure
(HAP)
Conditions Temp (°F) Humidite (%) Point de rose (°F) Vent (mph) Pression (pouces) Visibilité (miles)
30 août 2014
19:00 Généralement nuageux 64 77 56 SSO 5 29.9 20
18:00 Généralement nuageux 64 75 57 SO 5 29.9 15
17:00 Généralement nuageux 65 75 57 OSO 3 29.9 20
16:00 Généralement nuageux 64 82 59 SSO 7 29.9 15
15:00 Faible averse de pluie 65 76 57 SSO 10 29.9 15
14:00 Faible averse de pluie 64 78 57 S 10 29.9 15
13:00 Généralement nuageux 65 76 57 SSO 10 29.9 15
12:00 Généralement nuageux 66   71 57 S 9 29.9 15
11:00 Généralement nuageux 66   70 57 ESE 9 29.9 20
10:00 Généralement nuageux 64 75 57 ESE 10 29.9 20
9:00 Généralement nuageux 61 82 56 ENE 10 29.9 20
8:00 Généralement nuageux 59 89 56 E 9 29.9 20
7:00 Généralement nuageux 57 91 54 E 9 29.9 20
6:00 Partiellement nuageux 57 89 54 E 9 29.9 20
5:00 Partiellement nuageux 58 88 55 E 9 29.9 15
4:00 Généralement nuageux 56   91 54 E 6 29.9 15
3:00 Généralement nuageux 58 87 55 E 8 29.9 15
2:00 Généralement nuageux 60 85 55 E 7 29.9 20
1:00 Généralement nuageux 58 88 54 E 9 29.9 15
0:00 Généralement nuageux 60 84 55 E 7 29.9 20
29 août 2014
23:00 Généralement nuageux 60 80 54 ENE 7 29.9 15
22:00 Généralement nuageux 62 78 55 ENE 9 29.9 15
21:00 Généralement nuageux 62 80 56 ENE 8 29.9 15
20:00 Nuageux 62 77 55 E 9 29.9 15
19:00 Nuageux 62 81 56 E 10 29.9 12
N.D.
non disponible
 ↑ 
température la plus haute
 ↓ 
température la plus basse

Si vous désirez plus de données historiques sur les conditions météo, s.v.p. visitez Données climatologiques en ligne.